Padre Island — WDB4436 — position and weather

sailwx.info

Track history (hours):
 
Tides and Currents Weather Stations Pressure Air Temp Water Temp Dewpoint Dewpoint Depression Visibility Wind Speed Wind Dir Waves Ship Positions

Padre Island

Owner: Great Lakes Dredge & Dock Company, Oak Brook, IL. More information available from US FCC via Universal Licensing System and Coast Guard Vessel Documentation Center.

Last reported at 2016-Sep-27 00:33 UTC. Time now 2016-Sep-27 07:01 UTC.
Position N 39°41' W 074°05'.

Length 86 m; draft 19.6 m.

Type: Dredging. MMSI: 367525000.

Date/timePositionNaut miles runAvg speedWind from/ knotsBaromVisibWave heightAir tempDewpointWater temp
2016-Sep-27 00:33N 39°41' W 074°05'3 0.8
2016-Sep-26 20:33N 39°39' W 074°08'3 2.7
2016-Sep-26 19:33N 39°41' W 074°05'3 0.6
2016-Sep-26 15:33N 39°39' W 074°08'4 2.0
2016-Sep-26 13:33N 39°36' W 074°12'4 1.8
2016-Sep-26 11:33N 39°39' W 074°08'4 1.2
2016-Sep-26 08:33N 39°36' W 074°12'1 0.2
2016-Sep-26 02:33N 39°37' W 074°10'1 1.4
2016-Sep-26 01:32N 39°36' W 074°12'3 2.9
2016-Sep-26 00:33N 39°38' W 074°09'3 1.0
2016-Sep-25 21:33N 39°36' W 074°12'0 0.0
2016-Sep-25 17:33N 39°36' W 074°12'1 1.0
2016-Sep-25 16:33N 39°37' W 074°11'5 4.9
2016-Sep-25 15:33N 39°40' W 074°06'5 4.8
2016-Sep-25 14:33N 39°37' W 074°11'1 0.5
2016-Sep-25 12:33N 39°36' W 074°12'2 2.2
2016-Sep-25 11:33N 39°38' W 074°09'6 5.6
2016-Sep-25 10:33N 39°41' W 074°03'5 4.7
2016-Sep-25 09:33N 39°38' W 074°08'2 1.0
2016-Sep-25 07:32N 39°39' W 074°06'5 1.7
2016-Sep-25 04:33N 39°36' W 074°12'0 0.0
2016-Sep-25 00:33N 39°36' W 074°12'6 2.9
2016-Sep-24 22:33N 39°40' W 074°05'6 5.7
2016-Sep-24 21:32N 39°36' W 074°12'8 3.8
2016-Sep-24 19:33N 39°40' W 074°04'5 4.7
2016-Sep-24 18:33N 39°38' W 074°09'3 2.9
2016-Sep-24 17:33N 39°36' W 074°12'1 1.1
2016-Sep-24 16:33N 39°37' W 074°11'5 2.6
2016-Sep-24 14:33N 39°40' W 074°05'6 3.1
2016-Sep-24 12:33N 39°36' W 074°12'7 3.6
2016-Sep-24 10:33N 39°40' W 074°04'7 7.2
2016-Sep-24 09:33N 39°36' W 074°12'8 1.3
2016-Sep-24 03:33N 39°40' W 074°03'6 5.7
2016-Sep-24 02:33N 39°38' W 074°10'2 1.8
2016-Sep-24 01:33N 39°36' W 074°12'3 3.3
2016-Sep-24 00:33N 39°38' W 074°08'9 1.8
2016-Sep-23 19:28N 39°47' W 074°03'0 0.0
2016-Sep-23 17:28N 39°47' W 074°03'0 0.0
2016-Sep-23 16:22N 39°47' W 074°03'0 0.0
2016-Sep-23 15:22N 39°47' W 074°03'0 0.0
2016-Sep-23 13:25N 39°46' W 074°03'0 0.0
2016-Sep-23 09:28N 39°46' W 074°03'0 0.0
2016-Sep-23 06:16N 39°47' W 074°03'0 0.0
2016-Sep-23 04:32N 39°47' W 074°03'0 0.0
2016-Sep-23 03:28N 39°47' W 074°03'0 0.0
2016-Sep-23 02:24N 39°47' W 074°03'0 0.0
2016-Sep-23 01:31N 39°46' W 074°03'0 0.0
2016-Sep-23 00:28N 39°46' W 074°03'0 0.0
2016-Sep-22 23:28N 39°46' W 074°03'0 0.0
2016-Sep-22 20:28N 39°46' W 074°03'0 0.0
2016-Sep-22 12:31N 39°46' W 074°03'0 0.0
2016-Sep-22 04:28N 39°46' W 074°03'0 0.0
2016-Sep-22 03:26N 39°46' W 074°03'0 0.0
2016-Sep-22 00:28N 39°46' W 074°03'0 0.0
2016-Sep-21 23:33N 39°46' W 074°03'2 2.1
2016-Sep-21 22:33N 39°44' W 074°03'5 1.5
2016-Sep-21 19:29N 39°40' W 074°05'0 0.0
2016-Sep-21 16:32N 39°40' W 074°05'0 0.1
2016-Sep-21 09:33N 39°40' W 074°06'6 5.8
2016-Sep-21 08:33N 39°36' W 074°12'0 0.1
2016-Sep-21 05:33N 39°37' W 074°11'7 3.3
2016-Sep-21 03:33N 39°40' W 074°04'0 0.4
2016-Sep-21 02:33N 39°40' W 074°04'7 0.8
2016-Sep-20 17:33N 39°36' W 074°12'4 1.5
2016-Sep-20 14:33N 39°39' W 074°07'4 4.3
2016-Sep-20 13:32N 39°36' W 074°12'4 1.3
2016-Sep-20 10:33N 39°39' W 074°08'1 0.5
2016-Sep-20 08:33N 39°38' W 074°09'4 4.3
2016-Sep-20 07:33N 39°40' W 074°04'6 6.3
2016-Sep-20 06:33N 39°37' W 074°11'1 0.2
2016-Sep-20 02:33N 39°36' W 074°12'7 2.4
2016-Sep-19 23:33N 39°40' W 074°04'2 0.6
2016-Sep-19 19:33N 39°39' W 074°07'5 4.6
2016-Sep-19 18:33N 39°36' W 074°12'7 3.7
2016-Sep-19 16:33N 39°40' W 074°04'7 3.6
2016-Sep-19 14:33N 39°36' W 074°12'5 4.7
2016-Sep-19 13:33N 39°39' W 074°06'3 2.8
2016-Sep-19 12:33N 39°40' W 074°03'4 4.1
2016-Sep-19 11:33N 39°38' W 074°08'0 0.2
2016-Sep-19 09:33N 39°39' W 074°08'4 1.9
2016-Sep-19 07:32N 39°36' W 074°12'1 1.0
2016-Sep-19 06:31N 39°37' W 074°11'1 0.3
2016-Sep-19 03:33N 39°36' W 074°12'6 5.7
2016-Sep-19 02:33N 39°39' W 074°05'6 2.8
2016-Sep-19 00:33N 39°37' W 074°12'12 2.4
2016-Sep-18 19:33N 39°43' W 073°58'4 0.9
2016-Sep-18 15:33N 39°41' W 074°02'1 1.0
2016-Sep-18 14:33N 39°40' W 074°03'0 0.1
2016-Sep-18 10:32N 39°41' W 074°03'2 1.9
2016-Sep-18 09:33N 39°40' W 074°05'1 0.2
2016-Sep-18 02:33N 39°40' W 074°04'5 4.5
2016-Sep-18 01:33N 39°38' W 074°09'3 2.9
2016-Sep-18 00:33N 39°36' W 074°12'8 3.5
2016-Sep-17 22:25N 39°40' W 074°03'2 2.6
2016-Sep-17 21:33N 39°39' W 074°06'5 5.3
2016-Sep-17 20:33N 39°36' W 074°12'6 4.5
2016-Sep-17 19:16N 39°40' W 074°05'2 0.4
2016-Sep-17 13:33N 39°39' W 074°08'4 3.8
2016-Sep-17 12:33N 39°36' W 074°12'8 3.8
2016-Sep-17 10:33N 39°40' W 074°03'4 3.9
2016-Sep-17 09:33N 39°38' W 074°08'4 3.4
2016-Sep-17 08:30N 39°36' W 074°12'5 4.9
2016-Sep-17 07:33N 39°39' W 074°07'5 2.3
2016-Sep-17 05:32N 39°36' W 074°12'0 0.0
2016-Sep-17 04:33N 39°36' W 074°12'1 0.2
2016-Sep-17 00:33N 39°37' W 074°11'  
Track history (hours):
 
Tides and Currents Weather Stations Pressure Air Temp Water Temp Dewpoint Dewpoint Depression Visibility Wind Speed Wind Dir Waves Ship Positions

Padre Island

Owner: Great Lakes Dredge & Dock Company, Oak Brook, IL. More information available from US FCC via Universal Licensing System and Coast Guard Vessel Documentation Center.

Last reported at 2016-Sep-27 00:33 UTC. Time now 2016-Sep-27 07:01 UTC.
Position N 39°41' W 074°05'.

Length 86 m; draft 19.6 m.

Type: Dredging. MMSI: 367525000.

Date/timePositionNaut miles runAvg speedWind from/ knotsBaromVisibWave heightAir tempDewpointWater temp
2016-Sep-27 00:33N 39°41' W 074°05'3 0.8
2016-Sep-26 20:33N 39°39' W 074°08'3 2.7
2016-Sep-26 19:33N 39°41' W 074°05'3 0.6
2016-Sep-26 15:33N 39°39' W 074°08'4 2.0
2016-Sep-26 13:33N 39°36' W 074°12'4 1.8
2016-Sep-26 11:33N 39°39' W 074°08'4 1.2
2016-Sep-26 08:33N 39°36' W 074°12'1 0.2
2016-Sep-26 02:33N 39°37' W 074°10'1 1.4
2016-Sep-26 01:32N 39°36' W 074°12'3 2.9
2016-Sep-26 00:33N 39°38' W 074°09'3 1.0
2016-Sep-25 21:33N 39°36' W 074°12'0 0.0
2016-Sep-25 17:33N 39°36' W 074°12'1 1.0
2016-Sep-25 16:33N 39°37' W 074°11'5 4.9
2016-Sep-25 15:33N 39°40' W 074°06'5 4.8
2016-Sep-25 14:33N 39°37' W 074°11'1 0.5
2016-Sep-25 12:33N 39°36' W 074°12'2 2.2
2016-Sep-25 11:33N 39°38' W 074°09'6 5.6
2016-Sep-25 10:33N 39°41' W 074°03'5 4.7
2016-Sep-25 09:33N 39°38' W 074°08'2 1.0
2016-Sep-25 07:32N 39°39' W 074°06'5 1.7
2016-Sep-25 04:33N 39°36' W 074°12'0 0.0
2016-Sep-25 00:33N 39°36' W 074°12'6 2.9
2016-Sep-24 22:33N 39°40' W 074°05'6 5.7
2016-Sep-24 21:32N 39°36' W 074°12'8 3.8
2016-Sep-24 19:33N 39°40' W 074°04'5 4.7
2016-Sep-24 18:33N 39°38' W 074°09'3 2.9
2016-Sep-24 17:33N 39°36' W 074°12'1 1.1
2016-Sep-24 16:33N 39°37' W 074°11'5 2.6
2016-Sep-24 14:33N 39°40' W 074°05'6 3.1
2016-Sep-24 12:33N 39°36' W 074°12'7 3.6
2016-Sep-24 10:33N 39°40' W 074°04'7 7.2
2016-Sep-24 09:33N 39°36' W 074°12'8 1.3
2016-Sep-24 03:33N 39°40' W 074°03'6 5.7
2016-Sep-24 02:33N 39°38' W 074°10'2 1.8
2016-Sep-24 01:33N 39°36' W 074°12'3 3.3
2016-Sep-24 00:33N 39°38' W 074°08'9 1.8
2016-Sep-23 19:28N 39°47' W 074°03'0 0.0
2016-Sep-23 17:28N 39°47' W 074°03'0 0.0
2016-Sep-23 16:22N 39°47' W 074°03'0 0.0
2016-Sep-23 15:22N 39°47' W 074°03'0 0.0
2016-Sep-23 13:25N 39°46' W 074°03'0 0.0
2016-Sep-23 09:28N 39°46' W 074°03'0 0.0
2016-Sep-23 06:16N 39°47' W 074°03'0 0.0
2016-Sep-23 04:32N 39°47' W 074°03'0 0.0
2016-Sep-23 03:28N 39°47' W 074°03'0 0.0
2016-Sep-23 02:24N 39°47' W 074°03'0 0.0
2016-Sep-23 01:31N 39°46' W 074°03'0 0.0
2016-Sep-23 00:28N 39°46' W 074°03'0 0.0
2016-Sep-22 23:28N 39°46' W 074°03'0 0.0
2016-Sep-22 20:28N 39°46' W 074°03'0 0.0
2016-Sep-22 12:31N 39°46' W 074°03'0 0.0
2016-Sep-22 04:28N 39°46' W 074°03'0 0.0
2016-Sep-22 03:26N 39°46' W 074°03'0 0.0
2016-Sep-22 00:28N 39°46' W 074°03'0 0.0
2016-Sep-21 23:33N 39°46' W 074°03'2 2.1
2016-Sep-21 22:33N 39°44' W 074°03'5 1.5
2016-Sep-21 19:29N 39°40' W 074°05'0 0.0
2016-Sep-21 16:32N 39°40' W 074°05'0 0.1
2016-Sep-21 09:33N 39°40' W 074°06'6 5.8
2016-Sep-21 08:33N 39°36' W 074°12'0 0.1
2016-Sep-21 05:33N 39°37' W 074°11'7 3.3
2016-Sep-21 03:33N 39°40' W 074°04'0 0.4
2016-Sep-21 02:33N 39°40' W 074°04'7 0.8
2016-Sep-20 17:33N 39°36' W 074°12'4 1.5
2016-Sep-20 14:33N 39°39' W 074°07'4 4.3
2016-Sep-20 13:32N 39°36' W 074°12'4 1.3
2016-Sep-20 10:33N 39°39' W 074°08'1 0.5
2016-Sep-20 08:33N 39°38' W 074°09'4 4.3
2016-Sep-20 07:33N 39°40' W 074°04'6 6.3
2016-Sep-20 06:33N 39°37' W 074°11'1 0.2
2016-Sep-20 02:33N 39°36' W 074°12'7 2.4
2016-Sep-19 23:33N 39°40' W 074°04'2 0.6
2016-Sep-19 19:33N 39°39' W 074°07'5 4.6
2016-Sep-19 18:33N 39°36' W 074°12'7 3.7
2016-Sep-19 16:33N 39°40' W 074°04'7 3.6
2016-Sep-19 14:33N 39°36' W 074°12'5 4.7
2016-Sep-19 13:33N 39°39' W 074°06'3 2.8
2016-Sep-19 12:33N 39°40' W 074°03'4 4.1
2016-Sep-19 11:33N 39°38' W 074°08'0 0.2
2016-Sep-19 09:33N 39°39' W 074°08'4 1.9
2016-Sep-19 07:32N 39°36' W 074°12'1 1.0
2016-Sep-19 06:31N 39°37' W 074°11'1 0.3
2016-Sep-19 03:33N 39°36' W 074°12'6 5.7
2016-Sep-19 02:33N 39°39' W 074°05'6 2.8
2016-Sep-19 00:33N 39°37' W 074°12'12 2.4
2016-Sep-18 19:33N 39°43' W 073°58'4 0.9
2016-Sep-18 15:33N 39°41' W 074°02'1 1.0
2016-Sep-18 14:33N 39°40' W 074°03'0 0.1
2016-Sep-18 10:32N 39°41' W 074°03'2 1.9
2016-Sep-18 09:33N 39°40' W 074°05'1 0.2
2016-Sep-18 02:33N 39°40' W 074°04'5 4.5
2016-Sep-18 01:33N 39°38' W 074°09'3 2.9
2016-Sep-18 00:33N 39°36' W 074°12'8 3.5
2016-Sep-17 22:25N 39°40' W 074°03'2 2.6
2016-Sep-17 21:33N 39°39' W 074°06'5 5.3
2016-Sep-17 20:33N 39°36' W 074°12'6 4.5
2016-Sep-17 19:16N 39°40' W 074°05'2 0.4
2016-Sep-17 13:33N 39°39' W 074°08'4 3.8
2016-Sep-17 12:33N 39°36' W 074°12'8 3.8
2016-Sep-17 10:33N 39°40' W 074°03'4 3.9
2016-Sep-17 09:33N 39°38' W 074°08'4 3.4
2016-Sep-17 08:30N 39°36' W 074°12'5 4.9
2016-Sep-17 07:33N 39°39' W 074°07'5 2.3
2016-Sep-17 05:32N 39°36' W 074°12'0 0.0
2016-Sep-17 04:33N 39°36' W 074°12'1 0.2
2016-Sep-17 00:33N 39°37' W 074°11'  

Dump ship's entire track history